createdAt,value
2017-05-25T00:00:11.451Z,14.25
2017-05-25T00:00:52.036Z,14.32
2017-05-25T00:01:32.621Z,14.3
2017-05-25T00:02:13.203Z,14.28
2017-05-25T00:02:54.741Z,14.28
2017-05-25T00:03:35.346Z,14.32
2017-05-25T00:04:15.925Z,14.29
2017-05-25T00:04:56.511Z,14.2
2017-05-25T00:05:37.100Z,14.26
2017-05-25T00:06:17.680Z,14.2
2017-05-25T00:06:58.255Z,14.26
2017-05-25T00:07:38.837Z,14.32
2017-05-25T00:08:19.451Z,14.15
2017-05-25T00:09:00.052Z,14.29
2017-05-25T00:09:40.651Z,14.22
2017-05-25T00:10:21.229Z,14.18
2017-05-25T00:11:01.865Z,14.22
2017-05-25T00:11:42.403Z,14.2
2017-05-25T00:12:22.979Z,14.2
2017-05-25T00:13:03.567Z,14.18
2017-05-25T00:13:44.140Z,14.17
2017-05-25T00:14:24.731Z,14.17
2017-05-25T00:15:05.312Z,14.08
2017-05-25T00:15:45.895Z,14.12
2017-05-25T00:16:26.484Z,14.11
2017-05-25T00:17:07.062Z,14.12
2017-05-25T00:17:47.634Z,14.08
2017-05-25T00:18:28.215Z,14.05
2017-05-25T00:19:08.787Z,13.97
2017-05-25T00:19:49.350Z,14.04
2017-05-25T00:20:29.957Z,14.07
2017-05-25T00:21:10.534Z,14.07
2017-05-25T00:21:51.107Z,14
2017-05-25T00:22:31.689Z,14
2017-05-25T00:23:12.266Z,14.08
2017-05-25T00:23:52.856Z,14.05
2017-05-25T00:24:33.442Z,14.05
2017-05-25T00:25:14.019Z,14.07
2017-05-25T00:25:54.604Z,13.99
2017-05-25T00:26:35.221Z,14.03
2017-05-25T00:27:15.807Z,13.99
2017-05-25T00:27:56.399Z,13.9
2017-05-25T00:28:36.981Z,13.92
2017-05-25T00:29:17.549Z,14
2017-05-25T00:29:58.118Z,13.97
2017-05-25T00:30:38.699Z,13.9
2017-05-25T00:31:19.324Z,13.99
2017-05-25T00:31:59.894Z,14.03
2017-05-25T00:32:40.500Z,13.89
2017-05-25T00:33:21.121Z,13.89
2017-05-25T00:34:01.709Z,13.92
2017-05-25T00:34:42.285Z,13.87
2017-05-25T00:35:22.856Z,13.99
2017-05-25T00:36:03.442Z,13.86
2017-05-25T00:36:44.018Z,13.89
2017-05-25T00:37:24.609Z,13.92
2017-05-25T00:38:05.192Z,13.86
2017-05-25T00:38:46.208Z,13.89
2017-05-25T00:39:26.786Z,13.92
2017-05-25T00:40:07.364Z,13.87
2017-05-25T00:40:47.983Z,14.03
2017-05-25T00:41:28.612Z,13.9
2017-05-25T00:42:09.180Z,13.89
2017-05-25T00:42:49.757Z,13.89
2017-05-25T00:43:30.332Z,13.87
2017-05-25T00:44:10.916Z,13.96
2017-05-25T00:44:51.497Z,13.86
2017-05-25T00:45:32.074Z,13.92
2017-05-25T00:46:12.650Z,13.9
2017-05-25T00:46:53.234Z,13.95
2017-05-25T00:47:33.821Z,13.97
2017-05-25T00:48:14.410Z,13.89
2017-05-25T00:48:54.981Z,13.97
2017-05-25T00:49:35.578Z,13.95
2017-05-25T00:50:16.166Z,13.95
2017-05-25T00:50:56.748Z,13.92
2017-05-25T00:51:37.328Z,13.96
2017-05-25T00:52:17.931Z,13.89
2017-05-25T00:52:58.512Z,13.96
2017-05-25T00:53:39.137Z,13.87
2017-05-25T00:54:19.708Z,13.92
2017-05-25T00:55:00.288Z,13.93
2017-05-25T00:55:40.874Z,13.9
2017-05-25T00:56:21.445Z,13.96
2017-05-25T00:57:02.019Z,13.89
2017-05-25T00:57:42.611Z,13.92
2017-05-25T00:58:23.187Z,13.87
2017-05-25T00:59:03.775Z,13.97
2017-05-25T00:59:44.365Z,13.99
2017-05-25T01:00:24.939Z,13.9
2017-05-25T01:01:05.519Z,13.92
2017-05-25T01:01:46.111Z,13.89
2017-05-25T01:02:26.706Z,13.96
2017-05-25T01:03:07.293Z,14
2017-05-25T01:03:47.878Z,13.86
2017-05-25T01:04:28.452Z,13.89
2017-05-25T01:05:09.035Z,13.92
2017-05-25T01:05:49.619Z,13.96
2017-05-25T01:06:30.202Z,13.95
2017-05-25T01:07:10.785Z,13.97
2017-05-25T01:07:51.366Z,13.93
2017-05-25T01:08:31.955Z,13.89
2017-05-25T01:09:12.533Z,13.96
2017-05-25T01:09:53.120Z,13.99
2017-05-25T01:10:33.704Z,13.99
2017-05-25T01:11:14.269Z,13.93
2017-05-25T01:11:54.855Z,13.86
2017-05-25T01:12:35.432Z,13.9
2017-05-25T01:13:16.018Z,13.92
2017-05-25T01:13:56.602Z,13.87
2017-05-25T01:14:37.181Z,13.93
2017-05-25T01:15:17.779Z,13.89
2017-05-25T01:15:58.367Z,13.83
2017-05-25T01:16:38.949Z,13.78
2017-05-25T01:17:19.518Z,13.75
2017-05-25T01:18:00.106Z,13.85
2017-05-25T01:18:40.705Z,13.78
2017-05-25T01:19:21.296Z,13.85
2017-05-25T01:20:01.887Z,13.85
2017-05-25T01:20:42.470Z,13.77
2017-05-25T01:21:23.048Z,13.77
2017-05-25T01:22:03.624Z,13.79
2017-05-25T01:22:44.257Z,13.78
2017-05-25T01:23:24.844Z,13.77
2017-05-25T01:24:05.416Z,13.83
2017-05-25T01:24:45.998Z,13.83
2017-05-25T01:25:26.611Z,13.86
2017-05-25T01:26:07.208Z,13.78
2017-05-25T01:26:47.791Z,13.81
2017-05-25T01:27:28.365Z,13.78
2017-05-25T01:28:08.969Z,13.81
2017-05-25T01:28:49.563Z,13.85
2017-05-25T01:29:30.140Z,13.81
2017-05-25T01:30:10.716Z,13.78
2017-05-25T01:30:51.323Z,13.78
2017-05-25T01:31:31.909Z,13.78
2017-05-25T01:32:12.486Z,13.78
2017-05-25T01:32:53.066Z,13.71
2017-05-25T01:33:33.634Z,13.71
2017-05-25T01:34:14.221Z,13.7
2017-05-25T01:34:54.813Z,13.78
2017-05-25T01:35:35.389Z,13.68
2017-05-25T01:36:15.993Z,13.77
2017-05-25T01:36:56.571Z,13.77
2017-05-25T01:37:37.151Z,13.67
2017-05-25T01:38:17.741Z,13.7
2017-05-25T01:38:58.307Z,13.72
2017-05-25T01:39:38.888Z,13.72
2017-05-25T01:40:19.483Z,13.7
2017-05-25T01:41:00.071Z,13.77
2017-05-25T01:41:40.651Z,13.68
2017-05-25T01:42:21.239Z,13.7
2017-05-25T01:43:01.816Z,13.75
2017-05-25T01:43:42.396Z,13.71
2017-05-25T01:44:22.975Z,13.65
2017-05-25T01:45:03.550Z,13.68
2017-05-25T01:45:44.142Z,13.68
2017-05-25T01:46:24.715Z,13.59
2017-05-25T01:47:05.294Z,13.68
2017-05-25T01:47:45.882Z,13.54
2017-05-25T01:48:26.477Z,13.6
2017-05-25T01:49:07.061Z,13.67
2017-05-25T01:49:47.650Z,13.62
2017-05-25T01:50:28.238Z,13.57
2017-05-25T01:51:08.813Z,13.59
2017-05-25T01:51:49.388Z,13.65
2017-05-25T01:52:29.989Z,13.59
2017-05-25T01:53:10.567Z,13.57
2017-05-25T01:53:51.150Z,13.65
2017-05-25T01:54:31.748Z,13.57
2017-05-25T01:55:12.331Z,13.56
2017-05-25T01:55:52.920Z,13.54
2017-05-25T01:56:33.505Z,13.57
2017-05-25T01:57:14.100Z,13.57
2017-05-25T01:57:54.682Z,13.54
2017-05-25T01:58:35.268Z,13.57
2017-05-25T01:59:15.852Z,13.49
2017-05-25T01:59:56.427Z,13.59
2017-05-25T02:00:37.016Z,13.47
2017-05-25T02:01:17.613Z,13.46
2017-05-25T02:01:58.417Z,13.52
2017-05-25T02:02:39.078Z,13.56
2017-05-25T02:03:19.676Z,13.47
2017-05-25T02:04:00.258Z,13.5
2017-05-25T02:04:40.839Z,13.54
2017-05-25T02:05:21.420Z,13.53
2017-05-25T02:06:01.994Z,13.5
2017-05-25T02:06:43.083Z,13.47
2017-05-25T02:07:23.659Z,13.5
2017-05-25T02:08:04.259Z,13.49
2017-05-25T02:08:44.835Z,13.47
2017-05-25T02:09:25.411Z,13.52
2017-05-25T02:10:05.996Z,13.5
2017-05-25T02:10:46.573Z,13.44
2017-05-25T02:11:27.186Z,13.52
2017-05-25T02:12:07.777Z,13.57
2017-05-25T02:12:48.362Z,13.57
2017-05-25T02:13:28.953Z,13.52
2017-05-25T02:14:09.553Z,13.42
2017-05-25T02:14:50.165Z,13.39
2017-05-25T02:15:30.766Z,13.49
2017-05-25T02:16:11.350Z,13.39
2017-05-25T02:16:51.947Z,13.47
2017-05-25T02:17:32.525Z,13.49
2017-05-25T02:18:13.106Z,13.47
2017-05-25T02:18:53.680Z,13.49
2017-05-25T02:19:34.274Z,13.46
2017-05-25T02:20:14.925Z,13.44
2017-05-25T02:20:55.509Z,13.46
2017-05-25T02:21:36.098Z,13.44
2017-05-25T02:22:16.684Z,13.44
2017-05-25T02:22:57.270Z,13.44
2017-05-25T02:23:37.839Z,13.53
2017-05-25T02:24:18.423Z,13.44
2017-05-25T02:24:59.001Z,13.41
2017-05-25T02:25:39.578Z,13.53
2017-05-25T02:26:20.164Z,13.42
2017-05-25T02:27:00.739Z,13.37
2017-05-25T02:27:41.327Z,13.38
2017-05-25T02:28:21.898Z,13.37
2017-05-25T02:29:02.470Z,13.39
2017-05-25T02:29:43.073Z,13.46
2017-05-25T02:30:23.646Z,13.37
2017-05-25T02:31:04.225Z,13.41
2017-05-25T02:31:44.799Z,13.35
2017-05-25T02:32:25.393Z,13.37
2017-05-25T02:33:05.973Z,13.38
2017-05-25T02:33:46.596Z,13.38
2017-05-25T02:34:27.178Z,13.37
2017-05-25T02:35:07.759Z,13.35
2017-05-25T02:35:48.324Z,13.38
2017-05-25T02:36:28.915Z,13.39
2017-05-25T02:37:09.520Z,13.42
2017-05-25T02:37:50.107Z,13.33
2017-05-25T02:38:30.683Z,13.39
2017-05-25T02:39:11.298Z,13.33
2017-05-25T02:39:51.944Z,13.49
2017-05-25T02:40:32.448Z,13.37
2017-05-25T02:41:13.044Z,13.41
2017-05-25T02:41:53.858Z,13.39
2017-05-25T02:42:34.479Z,13.39
2017-05-25T02:43:15.063Z,13.38
2017-05-25T02:43:55.688Z,13.33
2017-05-25T02:44:36.357Z,13.42
2017-05-25T02:45:16.934Z,13.38
2017-05-25T02:45:57.551Z,13.35
2017-05-25T02:46:38.121Z,13.41
2017-05-25T02:47:19.131Z,13.35
2017-05-25T02:47:59.719Z,13.38
2017-05-25T02:48:40.316Z,13.35
2017-05-25T02:49:20.902Z,13.31
2017-05-25T02:50:01.477Z,13.31
2017-05-25T02:50:42.041Z,13.37
2017-05-25T02:51:22.651Z,13.33
2017-05-25T02:52:03.217Z,13.35
2017-05-25T02:52:43.799Z,13.37
2017-05-25T02:53:24.368Z,13.31
2017-05-25T02:54:04.944Z,13.37
2017-05-25T02:54:45.528Z,13.33
2017-05-25T02:55:26.104Z,13.19
2017-05-25T02:56:06.707Z,13.27
2017-05-25T02:56:47.328Z,13.2
2017-05-25T02:57:27.925Z,13.25
2017-05-25T02:58:08.490Z,13.27
2017-05-25T02:58:49.068Z,13.19
2017-05-25T02:59:29.687Z,13.16
2017-05-25T03:00:10.230Z,13.22
2017-05-25T03:00:50.811Z,13.22
2017-05-25T03:01:31.436Z,13.25
2017-05-25T03:02:11.992Z,13.31
2017-05-25T03:02:52.578Z,13.2
2017-05-25T03:03:33.159Z,13.22
2017-05-25T03:04:13.740Z,13.22
2017-05-25T03:04:54.332Z,13.25
2017-05-25T03:05:34.915Z,13.27
2017-05-25T03:06:15.496Z,13.25
2017-05-25T03:06:56.071Z,13.19
2017-05-25T03:07:36.672Z,13.3
2017-05-25T03:08:17.266Z,13.22
2017-05-25T03:08:57.842Z,13.28
2017-05-25T03:09:38.498Z,13.27
2017-05-25T03:10:19.074Z,13.28
2017-05-25T03:10:59.655Z,13.15
2017-05-25T03:11:40.234Z,13.2
2017-05-25T03:12:20.821Z,13.15
2017-05-25T03:13:01.425Z,13.22
2017-05-25T03:13:42.006Z,13.11
2017-05-25T03:14:22.588Z,13.22
2017-05-25T03:15:03.171Z,13.08
2017-05-25T03:15:43.753Z,13.09
2017-05-25T03:16:24.356Z,13.15
2017-05-25T03:17:04.941Z,13.15
2017-05-25T03:17:45.553Z,13.16
2017-05-25T03:18:26.124Z,13.16
2017-05-25T03:19:06.716Z,13.09
2017-05-25T03:19:47.312Z,13.08
2017-05-25T03:20:27.893Z,13.11
2017-05-25T03:21:08.486Z,13.15
2017-05-25T03:21:49.062Z,13.03
2017-05-25T03:22:29.811Z,13.11
2017-05-25T03:23:10.459Z,13.08
2017-05-25T03:23:51.067Z,13.05
2017-05-25T03:24:31.659Z,13.11
2017-05-25T03:25:12.230Z,13.13
2017-05-25T03:25:52.804Z,13.03
2017-05-25T03:26:33.429Z,13.08
2017-05-25T03:27:14.006Z,13.08
2017-05-25T03:27:54.648Z,13.12
2017-05-25T03:28:35.248Z,13.04
2017-05-25T03:29:15.844Z,13.09
2017-05-25T03:29:56.466Z,13.05
2017-05-25T03:30:37.042Z,13.01
2017-05-25T03:31:17.624Z,13.08
2017-05-25T03:31:58.211Z,13.08
2017-05-25T03:32:38.792Z,13.05
2017-05-25T03:33:19.372Z,13.08
2017-05-25T03:34:00.280Z,13
2017-05-25T03:34:40.898Z,13.05
2017-05-25T03:35:21.473Z,12.95
2017-05-25T03:36:02.085Z,13
2017-05-25T03:36:42.688Z,12.98
2017-05-25T03:37:23.348Z,13.03
2017-05-25T03:38:03.919Z,12.97
2017-05-25T03:38:44.495Z,13.03
2017-05-25T03:39:25.086Z,13.03
2017-05-25T03:40:05.679Z,13.04
2017-05-25T03:40:46.287Z,13.03
2017-05-25T03:41:26.881Z,13.04
2017-05-25T03:42:07.479Z,13.03
2017-05-25T03:42:48.102Z,13.03
2017-05-25T03:43:28.702Z,13
2017-05-25T03:44:09.449Z,12.98
2017-05-25T03:44:50.157Z,13.03
2017-05-25T03:45:30.735Z,13.04
2017-05-25T03:46:11.312Z,13.03
2017-05-25T03:46:51.920Z,13.03
2017-05-25T03:47:32.500Z,13.05
2017-05-25T03:48:13.068Z,13.08
2017-05-25T03:48:53.699Z,13.05
2017-05-25T03:49:34.300Z,13.04
2017-05-25T03:50:14.892Z,13.12
2017-05-25T03:50:55.472Z,13.08
2017-05-25T03:51:36.059Z,13.08
2017-05-25T03:52:16.638Z,13.11
2017-05-25T03:52:57.218Z,13.12
2017-05-25T03:53:37.859Z,13.09
2017-05-25T03:54:18.437Z,13.11
2017-05-25T03:54:59.039Z,13.11
2017-05-25T03:55:39.633Z,13.16
2017-05-25T03:56:20.202Z,13.16
2017-05-25T03:57:00.782Z,13.11
2017-05-25T03:57:41.376Z,13.18
2017-05-25T03:58:21.960Z,13.13
2017-05-25T03:59:02.598Z,13.2
2017-05-25T03:59:43.192Z,13.15
2017-05-25T04:00:23.773Z,13.13
2017-05-25T04:01:04.354Z,13.12
2017-05-25T04:01:44.928Z,13.25
2017-05-25T04:02:25.496Z,13.18
2017-05-25T04:03:06.109Z,13.18
2017-05-25T04:03:46.703Z,13.23
2017-05-25T04:04:27.280Z,13.22
2017-05-25T04:05:07.874Z,13.13
2017-05-25T04:05:48.489Z,13.25
2017-05-25T04:06:29.075Z,13.28
2017-05-25T04:07:09.649Z,13.27
2017-05-25T04:07:50.246Z,13.23
2017-05-25T04:08:30.817Z,13.22
2017-05-25T04:09:11.402Z,13.18
2017-05-25T04:09:51.987Z,13.22
2017-05-25T04:10:32.561Z,13.22
2017-05-25T04:11:13.135Z,13.27
2017-05-25T04:11:53.722Z,13.2
2017-05-25T04:12:34.296Z,13.31
2017-05-25T04:13:14.889Z,13.2
2017-05-25T04:13:55.494Z,13.31
2017-05-25T04:14:36.077Z,13.35
2017-05-25T04:15:16.661Z,13.33
2017-05-25T04:15:57.250Z,13.28
2017-05-25T04:16:37.823Z,13.31
2017-05-25T04:17:18.407Z,13.39
2017-05-25T04:17:58.989Z,13.38
2017-05-25T04:18:40.084Z,13.39
2017-05-25T04:19:20.700Z,13.37
2017-05-25T04:20:01.288Z,13.37
2017-05-25T04:20:41.867Z,13.35
2017-05-25T04:21:22.442Z,13.37
2017-05-25T04:22:03.024Z,13.35
2017-05-25T04:22:43.625Z,13.41
2017-05-25T04:23:24.242Z,13.37
2017-05-25T04:24:04.796Z,13.38
2017-05-25T04:24:45.371Z,13.41
2017-05-25T04:25:25.952Z,13.39
2017-05-25T04:26:06.541Z,13.39
2017-05-25T04:26:47.124Z,13.42
2017-05-25T04:27:27.704Z,13.41
2017-05-25T04:28:08.291Z,13.39
2017-05-25T04:28:48.867Z,13.38
2017-05-25T04:29:29.454Z,13.38
2017-05-25T04:30:10.052Z,13.41
2017-05-25T04:30:50.661Z,13.38
2017-05-25T04:31:31.230Z,13.38
2017-05-25T04:32:11.808Z,13.35
2017-05-25T04:32:52.547Z,13.44
2017-05-25T04:33:33.152Z,13.38
2017-05-25T04:34:13.726Z,13.39
2017-05-25T04:34:54.306Z,13.44
2017-05-25T04:35:34.894Z,13.46
2017-05-25T04:36:15.480Z,13.44
2017-05-25T04:36:56.091Z,13.38
2017-05-25T04:37:36.698Z,13.39
2017-05-25T04:38:17.265Z,13.41
2017-05-25T04:38:57.859Z,13.49
2017-05-25T04:39:38.457Z,13.37
2017-05-25T04:40:19.044Z,13.41
2017-05-25T04:40:59.631Z,13.39
2017-05-25T04:41:40.209Z,13.31
2017-05-25T04:42:20.789Z,13.39
2017-05-25T04:43:01.375Z,13.37
2017-05-25T04:43:41.988Z,13.39
2017-05-25T04:44:22.565Z,13.38
2017-05-25T04:45:03.138Z,13.38
2017-05-25T04:45:43.718Z,13.35
2017-05-25T04:46:24.296Z,13.35
2017-05-25T04:47:04.877Z,13.33
2017-05-25T04:47:45.463Z,13.3
2017-05-25T04:48:26.056Z,13.35
2017-05-25T04:49:06.639Z,13.38
2017-05-25T04:49:47.215Z,13.38
2017-05-25T04:50:27.859Z,13.33
2017-05-25T04:51:08.377Z,13.37
2017-05-25T04:51:48.957Z,13.41
2017-05-25T04:52:29.539Z,13.39
2017-05-25T04:53:10.108Z,13.41
2017-05-25T04:53:50.704Z,13.44
2017-05-25T04:54:31.282Z,13.39
2017-05-25T04:55:11.861Z,13.44
2017-05-25T04:55:52.442Z,13.44
2017-05-25T04:56:33.018Z,13.44
2017-05-25T04:57:13.589Z,13.41
2017-05-25T04:57:54.184Z,13.39
2017-05-25T04:58:34.775Z,13.35
2017-05-25T04:59:15.360Z,13.46
2017-05-25T04:59:55.941Z,13.49
2017-05-25T05:00:36.518Z,13.47
2017-05-25T05:01:17.112Z,13.42
2017-05-25T05:01:57.766Z,13.5
2017-05-25T05:02:38.292Z,13.47
2017-05-25T05:03:18.867Z,13.42
2017-05-25T05:03:59.480Z,13.53
2017-05-25T05:04:40.060Z,13.46
2017-05-25T05:05:20.638Z,13.47
2017-05-25T05:06:01.236Z,13.6
2017-05-25T05:06:41.845Z,13.52
2017-05-25T05:07:22.460Z,13.54
2017-05-25T05:08:03.033Z,13.56
2017-05-25T05:08:43.601Z,13.6
2017-05-25T05:09:24.252Z,13.57
2017-05-25T05:10:04.842Z,13.59
2017-05-25T05:10:45.421Z,13.63
2017-05-25T05:11:26.005Z,13.59
2017-05-25T05:12:06.604Z,13.65
2017-05-25T05:12:47.194Z,13.62
2017-05-25T05:13:27.781Z,13.65
2017-05-25T05:14:08.370Z,13.68
2017-05-25T05:14:48.971Z,13.7
2017-05-25T05:15:29.555Z,13.7
2017-05-25T05:16:10.137Z,13.71
2017-05-25T05:16:50.718Z,13.71
2017-05-25T05:17:31.296Z,13.68
2017-05-25T05:18:11.902Z,13.83
2017-05-25T05:18:52.484Z,13.78
2017-05-25T05:19:33.066Z,13.81
2017-05-25T05:20:13.656Z,13.78
2017-05-25T05:20:54.232Z,13.83
2017-05-25T05:21:34.818Z,13.89
2017-05-25T05:22:15.419Z,13.9
2017-05-25T05:22:55.999Z,13.9
2017-05-25T05:23:36.586Z,13.87
2017-05-25T05:24:17.173Z,13.9
2017-05-25T05:24:57.751Z,14.03
2017-05-25T05:25:38.335Z,14.05
2017-05-25T05:26:18.909Z,14.1
2017-05-25T05:26:59.497Z,14.17
2017-05-25T05:27:40.084Z,14.22
2017-05-25T05:28:20.679Z,14.35
2017-05-25T05:29:01.265Z,14.41
2017-05-25T05:29:41.844Z,14.5
2017-05-25T05:30:22.416Z,14.51
2017-05-25T05:31:02.993Z,14.58
2017-05-25T05:31:43.581Z,14.7
2017-05-25T05:32:24.167Z,14.79
2017-05-25T05:33:04.750Z,14.86
2017-05-25T05:33:45.358Z,14.94
2017-05-25T05:34:25.956Z,15.09
2017-05-25T05:35:06.602Z,15.33
2017-05-25T05:35:47.184Z,15.27
2017-05-25T05:36:27.770Z,15.44
2017-05-25T05:37:08.360Z,15.44
2017-05-25T05:37:48.949Z,15.58
2017-05-25T05:38:29.535Z,15.67
2017-05-25T05:39:10.141Z,15.83
2017-05-25T05:39:50.723Z,15.95
2017-05-25T05:40:31.307Z,16
2017-05-25T05:41:11.898Z,16.04
2017-05-25T05:41:52.505Z,16.21
2017-05-25T05:42:33.098Z,16.36
2017-05-25T05:43:13.694Z,16.46
2017-05-25T05:43:54.274Z,16.56
2017-05-25T05:44:34.873Z,16.61
2017-05-25T05:45:15.451Z,16.65
2017-05-25T05:45:56.049Z,16.72
2017-05-25T05:46:36.656Z,16.81
2017-05-25T05:47:17.239Z,16.83
2017-05-25T05:47:57.819Z,16.96
2017-05-25T05:48:38.426Z,17.06
2017-05-25T05:49:19.038Z,17.08
2017-05-25T05:49:59.630Z,17.3
2017-05-25T05:50:40.320Z,17.26
2017-05-25T05:51:20.926Z,17.36
2017-05-25T05:52:01.517Z,17.42
2017-05-25T05:52:42.172Z,17.6
2017-05-25T05:53:22.767Z,17.64
2017-05-25T05:54:03.375Z,17.71
2017-05-25T05:54:43.968Z,17.76
2017-05-25T05:55:24.594Z,17.89
2017-05-25T05:56:05.189Z,17.94
2017-05-25T05:56:45.787Z,18.03
2017-05-25T05:57:26.380Z,18.07
2017-05-25T05:58:07.018Z,18.1
2017-05-25T05:58:47.626Z,18.19
2017-05-25T05:59:28.233Z,18.25
2017-05-25T06:00:08.820Z,18.33
2017-05-25T06:00:49.404Z,18.37
2017-05-25T06:01:29.992Z,18.45
2017-05-25T06:02:10.586Z,18.41
2017-05-25T06:02:51.183Z,18.45
2017-05-25T06:03:31.769Z,18.5
2017-05-25T06:04:12.363Z,18.6
2017-05-25T06:04:52.949Z,18.6
2017-05-25T06:05:33.524Z,18.66
2017-05-25T06:06:14.119Z,18.63
2017-05-25T06:06:54.708Z,18.68
2017-05-25T06:07:35.298Z,18.74
2017-05-25T06:08:15.935Z,18.7
2017-05-25T06:08:56.526Z,18.8
2017-05-25T06:09:37.274Z,18.88
2017-05-25T06:10:17.859Z,18.89
2017-05-25T06:10:58.460Z,18.99
2017-05-25T06:11:39.047Z,19
2017-05-25T06:12:19.627Z,19.08
2017-05-25T06:13:00.291Z,19
2017-05-25T06:13:40.881Z,18.99
2017-05-25T06:14:21.478Z,19.09
2017-05-25T06:15:02.083Z,19.04
2017-05-25T06:15:42.669Z,18.92
2017-05-25T06:16:23.256Z,18.92
2017-05-25T06:17:03.838Z,18.83
2017-05-25T06:17:44.434Z,18.75
2017-05-25T06:18:25.057Z,18.77
2017-05-25T06:19:05.654Z,18.59
2017-05-25T06:19:46.246Z,18.44
2017-05-25T06:20:26.846Z,18.45
2017-05-25T06:21:07.434Z,18.31
2017-05-25T06:21:48.020Z,18.26
2017-05-25T06:22:28.607Z,18.26
2017-05-25T06:23:09.228Z,18.28
2017-05-25T06:23:49.872Z,18.28
2017-05-25T06:24:30.462Z,18.35
2017-05-25T06:25:11.060Z,18.31
2017-05-25T06:25:51.650Z,18.52
2017-05-25T06:26:32.253Z,18.6
2017-05-25T06:27:12.842Z,18.68
2017-05-25T06:27:53.442Z,18.7
2017-05-25T06:28:34.045Z,18.93
2017-05-25T06:29:14.636Z,18.86
2017-05-25T06:29:55.283Z,18.98
2017-05-25T06:30:35.892Z,19.16
2017-05-25T06:31:16.491Z,19.19
2017-05-25T06:31:57.085Z,19.4
2017-05-25T06:32:37.692Z,19.41
2017-05-25T06:33:18.285Z,19.37
2017-05-25T06:33:58.853Z,19.34
2017-05-25T06:34:39.456Z,19.49
2017-05-25T06:35:27.029Z,19.49
2017-05-25T06:36:07.626Z,19.58
2017-05-25T06:36:48.243Z,19.76
2017-05-25T06:37:30.445Z,19.79
2017-05-25T06:38:11.999Z,19.85
2017-05-25T06:38:54.857Z,19.86
2017-05-25T06:39:36.553Z,19.71
2017-05-25T06:40:18.475Z,19.66
2017-05-25T06:40:59.329Z,19.64
2017-05-25T06:41:41.236Z,19.52
2017-05-25T06:42:22.467Z,19.4
2017-05-25T06:43:03.056Z,19.37
2017-05-25T06:43:44.278Z,19.29
2017-05-25T06:44:24.451Z,19.33
2017-05-25T06:45:05.043Z,19.41
2017-05-25T06:45:45.664Z,19.48
2017-05-25T06:46:26.279Z,19.58
2017-05-25T06:47:08.282Z,19.77
2017-05-25T06:47:50.033Z,19.82
2017-05-25T06:48:30.711Z,19.95
2017-05-25T06:49:11.512Z,20.04
2017-05-25T06:49:52.132Z,20.14
2017-05-25T06:50:32.726Z,20.29
2017-05-25T06:51:13.552Z,20.28
2017-05-25T06:51:54.143Z,20.28
2017-05-25T06:52:34.735Z,20.29
2017-05-25T06:53:15.353Z,20.47
2017-05-25T06:53:55.978Z,20.5
2017-05-25T06:54:36.570Z,20.41
2017-05-25T06:55:17.179Z,20.55
2017-05-25T06:55:57.775Z,20.63
2017-05-25T06:56:38.370Z,20.62
2017-05-25T06:57:18.961Z,20.66
2017-05-25T06:57:59.561Z,20.69
2017-05-25T06:58:40.163Z,20.85
2017-05-25T06:59:20.765Z,20.85
2017-05-25T07:00:01.416Z,20.9
2017-05-25T07:00:42.060Z,20.92
2017-05-25T07:01:22.715Z,21.02
2017-05-25T07:02:03.373Z,21.03
2017-05-25T07:02:43.970Z,21.02
2017-05-25T07:03:24.552Z,20.97
2017-05-25T07:04:05.152Z,20.85
2017-05-25T07:04:45.765Z,20.93
2017-05-25T07:05:26.375Z,20.88
2017-05-25T07:06:06.973Z,20.9
2017-05-25T07:06:47.594Z,20.96
2017-05-25T07:07:28.186Z,20.96
2017-05-25T07:08:08.781Z,21.03
2017-05-25T07:08:49.388Z,21.07
2017-05-25T07:09:29.989Z,21.09
2017-05-25T07:10:10.598Z,21.06
2017-05-25T07:10:51.296Z,21.06
2017-05-25T07:11:31.879Z,21.18
2017-05-25T07:12:12.462Z,21.2
2017-05-25T07:12:53.077Z,21.2
2017-05-25T07:13:33.686Z,21.29
2017-05-25T07:14:14.536Z,21.3
2017-05-25T07:14:55.353Z,21.37
2017-05-25T07:15:35.932Z,21.36
2017-05-25T07:16:16.560Z,21.4
2017-05-25T07:16:57.146Z,21.36
2017-05-25T07:17:37.741Z,21.48
2017-05-25T07:18:18.379Z,21.5
2017-05-25T07:18:58.977Z,21.46
2017-05-25T07:19:39.735Z,21.5
2017-05-25T07:20:20.375Z,21.48
2017-05-25T07:21:00.987Z,21.54
2017-05-25T07:21:41.661Z,21.64
2017-05-25T07:22:22.256Z,21.64
2017-05-25T07:23:02.849Z,21.7
2017-05-25T07:23:43.443Z,21.76
2017-05-25T07:24:24.172Z,21.79
2017-05-25T07:25:04.785Z,21.85
2017-05-25T07:25:45.463Z,21.95
2017-05-25T07:26:30.482Z,21.89
2017-05-25T07:27:38.581Z,21.96
2017-05-25T07:28:25.408Z,21.93
2017-05-25T07:29:06.871Z,22.04
2017-05-25T07:29:53.429Z,22.07
2017-05-25T07:30:43.946Z,22.02
2017-05-25T07:31:34.326Z,22.08
2017-05-25T07:32:20.250Z,22.13
2017-05-25T07:33:00.842Z,22.17
2017-05-25T07:33:41.453Z,22.22
2017-05-25T07:34:22.059Z,22.23
2017-05-25T07:35:02.657Z,22.23
2017-05-25T07:35:43.253Z,22.22
2017-05-25T07:36:23.860Z,22.25
2017-05-25T07:37:04.462Z,22.23
2017-05-25T07:37:45.053Z,22.32
2017-05-25T07:38:25.652Z,22.26
2017-05-25T07:39:06.271Z,22.35
2017-05-25T07:39:46.879Z,22.35
2017-05-25T07:40:27.475Z,22.32
2017-05-25T07:41:08.080Z,22.43
2017-05-25T07:41:48.677Z,22.33
2017-05-25T07:42:29.272Z,22.28
2017-05-25T07:43:09.883Z,22.29
2017-05-25T07:43:50.482Z,22.28
2017-05-25T07:44:31.093Z,22.3
2017-05-25T07:45:11.696Z,22.15
2017-05-25T07:45:52.293Z,22.15
2017-05-25T07:46:32.886Z,22.23
2017-05-25T07:47:13.496Z,22.1
2017-05-25T07:47:54.100Z,22.06
2017-05-25T07:48:34.690Z,21.99
2017-05-25T07:49:15.345Z,21.92
2017-05-25T07:49:55.889Z,21.8
2017-05-25T07:50:36.488Z,21.69
2017-05-25T07:51:17.084Z,21.72
2017-05-25T07:51:57.694Z,21.57
2017-05-25T07:52:38.324Z,21.6
2017-05-25T07:53:18.937Z,21.6
2017-05-25T07:53:59.592Z,21.39
2017-05-25T07:54:40.215Z,21.29
2017-05-25T07:55:20.791Z,21.25
2017-05-25T07:56:01.385Z,21.2
2017-05-25T07:56:41.978Z,21.17
2017-05-25T07:57:22.577Z,21.18
2017-05-25T07:58:03.174Z,21.27
2017-05-25T07:58:43.783Z,21.35
2017-05-25T07:59:24.378Z,21.36
2017-05-25T08:00:04.974Z,21.43
2017-05-25T08:00:45.560Z,21.46
2017-05-25T08:01:26.188Z,21.43
2017-05-25T08:02:06.781Z,21.46
2017-05-25T08:02:47.398Z,21.35
2017-05-25T08:03:27.993Z,21.14
2017-05-25T08:04:08.584Z,21.05
2017-05-25T08:04:49.183Z,20.95
2017-05-25T08:05:29.763Z,20.88
2017-05-25T08:06:10.369Z,20.92
2017-05-25T08:06:50.964Z,20.97
2017-05-25T08:07:31.555Z,20.93
2017-05-25T08:08:12.152Z,20.99
2017-05-25T08:08:52.767Z,20.92
2017-05-25T08:09:33.372Z,20.87
2017-05-25T08:10:13.972Z,20.82
2017-05-25T08:10:54.558Z,20.8
2017-05-25T08:11:35.160Z,20.85
2017-05-25T08:12:15.768Z,20.87
2017-05-25T08:12:56.356Z,20.96
2017-05-25T08:13:36.941Z,21.03
2017-05-25T08:14:17.536Z,21.11
2017-05-25T08:14:58.136Z,21.05
2017-05-25T08:15:38.751Z,21.12
2017-05-25T08:16:19.391Z,21.07
2017-05-25T08:16:59.988Z,21.05
2017-05-25T08:17:40.612Z,20.95
2017-05-25T08:18:21.208Z,20.82
2017-05-25T08:19:01.859Z,20.67
2017-05-25T08:19:42.459Z,20.51
2017-05-25T08:20:23.063Z,20.47
2017-05-25T08:21:03.675Z,20.58
2017-05-25T08:21:44.297Z,20.63
2017-05-25T08:22:24.906Z,20.65
2017-05-25T08:23:05.521Z,20.74
2017-05-25T08:23:46.116Z,20.85
2017-05-25T08:24:26.711Z,20.93
2017-05-25T08:25:07.308Z,21.06
2017-05-25T08:25:47.906Z,20.92
2017-05-25T08:26:28.540Z,20.93
2017-05-25T08:27:09.133Z,20.97
2017-05-25T08:27:49.729Z,20.8
2017-05-25T08:28:30.320Z,20.75
2017-05-25T08:29:10.930Z,20.7
2017-05-25T08:29:51.523Z,20.69
2017-05-25T08:30:32.151Z,20.69
2017-05-25T08:31:12.871Z,20.69
2017-05-25T08:31:53.466Z,20.56
2017-05-25T08:32:34.053Z,20.47
2017-05-25T08:33:14.663Z,20.5
2017-05-25T08:33:55.235Z,20.44
2017-05-25T08:34:35.834Z,20.31
2017-05-25T08:35:16.475Z,20.26
2017-05-25T08:35:57.084Z,20.18
2017-05-25T08:36:37.704Z,20.07
2017-05-25T08:37:18.303Z,19.91
2017-05-25T08:37:58.909Z,20.02
2017-05-25T08:38:39.525Z,19.95
2017-05-25T08:39:20.114Z,19.99
2017-05-25T08:40:00.718Z,19.95
2017-05-25T08:40:41.312Z,20
2017-05-25T08:41:21.904Z,19.95
2017-05-25T08:42:02.490Z,20.04
2017-05-25T08:42:43.108Z,20.06
2017-05-25T08:43:23.744Z,20.14
2017-05-25T08:44:04.333Z,20.24
2017-05-25T08:44:44.944Z,20.34
2017-05-25T08:45:25.514Z,20.31
2017-05-25T08:46:06.146Z,20.4
2017-05-25T08:46:46.730Z,20.52